Nearby METAR Reports

 

KTEB - Teterboro, New Jersey, USA
Distance from station: ENE 2mi, 4km
Updated: 02/20/2020 8:51pm
Clear
Clear
 Wind from NNW
Wind: NNW 10 mph , 17 km/h
Temperature: 28°F , -2°C
Wind Chill: 19°F , -7°C
Dew Point: 7°F , -14°C
Humidity: 40%
Barometer: 30.43 inHg , 1030.5 hPa
Clouds: Clear
Visibility: 10 miles , 16 km
2020/02/21 01:51 KTEB 210151Z 34009KT 10SM CLR M02/M14 A3043 RMK AO2 SLP305 T10171139
KNYC - Nyc/Central Park, New York, USA
Distance from station: SE 8mi, 13km
Updated: 02/20/2020 8:51pm
Clear
Clear
 Wind from varies
Wind: varies 3 mph , 6 km/h
Temperature: 30°F , -1°C
Dew Point: 5°F , -15°C
Humidity: 34%
Barometer: 30.44 inHg , 1030.8 hPa
Clouds: Clear
Visibility: 10 miles , 16 km
2020/02/21 01:51 KNYC 210151Z AUTO VRB03KT 10SM CLR M01/M15 A3044 RMK AO2 SLP302 T10061150
 
KCDW - Caldwell, New Jersey, USA
Distance from station: WNW 10mi, 17km
Updated: 02/20/2020 8:53pm
Clear
Clear
 Wind from varies
Wind: varies 6 mph , 9 km/h
Temperature: 28°F , -2°C
Wind Chill: 21°F , -6°C
Dew Point: 7°F , -14°C
Humidity: 40%
Barometer: 30.45 inHg , 1031.2 hPa
Clouds: Clear
Visibility: 10 miles , 16 km
2020/02/21 01:53 KCDW 210153Z VRB05KT 10SM CLR M02/M14 A3045 RMK AO2 SLP318 T10171144
KLGA - Nyc/La Guardia, New York, USA
Distance from station: ESE 12mi, 19km
Updated: 02/20/2020 8:51pm
Mostly cloudy
Mostly cloudy
 Wind from NNW
Wind: NNW 16 mph , 26 km/h, Gust: 24 mph , 39 km/h
Temperature: 32°F , 0°C
Wind Chill: 21°F , -6°C
Dew Point: 9°F , -13°C
Humidity: 37%
Barometer: 30.42 inHg , 1030.1 hPa
Clouds: Mostly cloudy
Visibility: 10 miles , 16 km
Cloud details: Few Clouds 6000 ft
Mostly cloudy 22000 ft
Mostly cloudy 25000 ft
2020/02/21 01:51 KLGA 210151Z 34014G21KT 10SM FEW060 BKN220 BKN250 00/M13 A3042 RMK AO2 SLP301 T00001128
 
KEWR - Newark, New Jersey, USA
Distance from station: SSW 12mi, 20km
Updated: 02/20/2020 8:51pm
Mostly cloudy
Mostly cloudy
 Wind from NNW
Wind: NNW 16 mph , 26 km/h, Gust: 24 mph , 39 km/h
Temperature: 30°F , -1°C
Wind Chill: 19°F , -7°C
Dew Point: 7°F , -14°C
Humidity: 37%
Barometer: 30.44 inHg , 1030.8 hPa
Clouds: Mostly cloudy
Visibility: 10 miles , 16 km
Cloud details: Few Clouds 7000 ft
Partly cloudy 22000 ft
Mostly cloudy 25000 ft
2020/02/21 01:51 KEWR 210151Z 33014G21KT 10SM FEW070 SCT220 BKN250 M01/M14 A3044 RMK AO2 SLP305 T10061144
KMMU - Morristown Muni, New Jersey, USA
Distance from station: WSW 18mi, 29km
Updated: 02/20/2020 8:45pm
Clear
Clear
 Wind from N
Wind: N 8 mph , 13 km/h
Temperature: 28°F , -2°C
Wind Chill: 20°F , -7°C
Dew Point: 12°F , -11°C
Humidity: 51%
Barometer: 30.45 inHg , 1031.2 hPa
Clouds: Clear
Visibility: 10 miles , 16 km
2020/02/21 01:45 KMMU 210145Z 36007KT 10SM SKC M02/M11 A3045
 
KJFK - Nyc/Jfk Arpt, New York, USA
Distance from station: SE 23mi, 36km
Updated: 02/20/2020 8:51pm
Mostly cloudy
Mostly cloudy
 Wind from NNW
Wind: NNW 17 mph , 28 km/h
Temperature: 32°F , 0°C
Wind Chill: 21°F , -6°C
Dew Point: 9°F , -13°C
Humidity: 37%
Barometer: 30.43 inHg , 1030.5 hPa
Clouds: Mostly cloudy
Visibility: 10 miles , 16 km
Cloud details: Few Clouds 6000 ft
Mostly cloudy 23000 ft
2020/02/21 01:51 KJFK 210151Z 33015KT 10SM FEW060 BKN230 00/M13 A3043 RMK AO2 SLP302 T00001128 $
KHPN - White Plains, New York, USA
Distance from station: NE 25mi, 40km
Updated: 02/20/2020 8:56pm
Partly cloudy
Partly cloudy
 Wind from N
Wind: N 13 mph , 20 km/h
Temperature: 27°F , -3°C
Wind Chill: 16°F , -9°C
Dew Point: 9°F , -13°C
Humidity: 46%
Barometer: 30.41 inHg , 1029.8 hPa
Clouds: Partly cloudy
Visibility: 10 miles , 16 km
Cloud details: Few Clouds 4200 ft
Partly cloudy 5500 ft
2020/02/21 01:56 KHPN 210156Z 35011KT 10SM FEW042 SCT055 M03/M13 A3041 RMK AO2 SLP306 T10331128
 
KSMQ - Somerville, New Jersey, USA
Distance from station: WSW 34mi, 55km
Updated: 02/20/2020 8:53pm
Clear
Clear
 Wind from N
Wind: N 6 mph , 9 km/h
Temperature: 30°F , -1°C
Wind Chill: 24°F , -4°C
Dew Point: 9°F , -13°C
Humidity: 40%
Barometer: 30.42 inHg , 1030.1 hPa
Clouds: Clear
Visibility: 10 miles , 16 km
2020/02/21 01:53 KSMQ 210153Z AUTO 35005KT 10SM CLR M01/M13 A3042 RMK AO2 SLP304 T10111133
K12N - Andover, New Jersey, USA
Distance from station: WNW 36mi, 57km
Updated: 02/20/2020 8:54pm

 Wind from varies
Wind: varies 5 mph , 7 km/h
Temperature: 25°F , -4°C
Wind Chill: 19°F , -7°C
Dew Point: 10°F , -12°C
Humidity: 54%
Barometer: 30.43 inHg , 1030.5 hPa
2020/02/21 01:54 K12N 210154Z AUTO VRB04KT M04/M12 A3043 RMK AO1 SLP318 T10391122
 
KFRG - Farmingdale, New York, USA
Distance from station: ESE 36mi, 58km
Updated: 02/20/2020 8:53pm
Clear
Clear
 Wind from NNW
Wind: NNW 10 mph , 17 km/h
Temperature: 32°F , 0°C
Wind Chill: 24°F , -4°C
Dew Point: 9°F , -13°C
Humidity: 37%
Barometer: 30.41 inHg , 1029.8 hPa
Clouds: Clear
Visibility: 10 miles , 16 km
2020/02/21 01:53 KFRG 210153Z 34009KT 10SM CLR 00/M13 A3041 RMK AO2 SLP299 T00001133
KFWN - Sussex, New Jersey, USA
Distance from station: NW 37mi, 60km
Updated: 02/20/2020 8:53pm
Clear
Clear
 Wind from varies
Wind: varies 7 mph , 11 km/h
Temperature: 25°F , -4°C
Wind Chill: 17°F , -8°C
Dew Point: 7°F , -14°C
Humidity: 46%
Barometer: 30.44 inHg , 1030.8 hPa
Clouds: Clear
Visibility: 10 miles , 16 km
2020/02/21 01:53 KFWN 210153Z AUTO VRB06KT 10SM CLR M04/M14 A3044 RMK AO2 SLP312 T10391144
 
KSWF - Newburgh/Stewart, New York, USA
Distance from station: 0 45mi, 72km
Updated: 02/20/2020 8:45pm
Clear
Clear
 Wind from WNW
Wind: WNW 12 mph , 19 km/h
Temperature: 23°F , -5°C
Wind Chill: 11°F , -12°C
Dew Point: 9°F , -13°C
Humidity: 54%
Barometer: 30.43 inHg , 1030.5 hPa
Clouds: Clear
Visibility: 10 miles , 16 km
2020/02/21 01:45 KSWF 210145Z 30010KT 10SM SKC M05/M13 A3043
KMGJ - Montgomery, New York, USA
Distance from station: NNW 47mi, 75km
Updated: 02/20/2020 8:54pm
Clear
Clear
 Wind from NNW
Wind: NNW 10 mph , 17 km/h
Temperature: 23°F , -5°C
Wind Chill: 13°F , -11°C
Dew Point: 7°F , -14°C
Humidity: 50%
Barometer: 30.44 inHg , 1030.8 hPa
Clouds: Clear
Visibility: 10 miles , 16 km
2020/02/21 01:54 KMGJ 210154Z AUTO 34009KT 10SM CLR M05/M14 A3044 RMK AO2 SLP313 T10501139
 
KBLM - Belmar/Farmdale, New Jersey, USA
Distance from station: S 47mi, 76km
Updated: 02/20/2020 8:56pm
Few Clouds
Few Clouds
 Wind from NNW
Wind: NNW 9 mph , 15 km/h
Temperature: 30°F , -1°C
Wind Chill: 22°F , -6°C
Dew Point: 12°F , -11°C
Humidity: 47%
Barometer: 30.42 inHg , 1030.1 hPa
Clouds: Few Clouds
Visibility: 10 miles , 16 km
Cloud details: Few Clouds 6000 ft
2020/02/21 01:56 KBLM 210156Z AUTO 33008KT 10SM FEW060 M01/M11 A3042 RMK AO2 SLP303 T10111106 FZRANO
KDXR - Danbury, Connecticut, USA
Distance from station: NE 47mi, 76km
Updated: 02/20/2020 8:53pm
Clear
Clear
 Wind from N
Wind: N 9 mph , 15 km/h
Temperature: 25°F , -4°C
Wind Chill: 16°F , -9°C
Dew Point: 9°F , -13°C
Humidity: 50%
Barometer: 30.43 inHg , 1030.5 hPa
Clouds: Clear
Visibility: 10 miles , 16 km
2020/02/21 01:53 KDXR 210153Z 35008KT 10SM CLR M04/M13 A3043 RMK AO2 SLP311 T10441133
 
KISP - Islip, New York, USA
Distance from station: E 52mi, 83km
Updated: 02/20/2020 8:56pm
Mostly cloudy
Mostly cloudy
 Wind from N
Wind: N 9 mph , 15 km/h
Temperature: 30°F , -1°C
Wind Chill: 22°F , -6°C
Dew Point: 12°F , -11°C
Humidity: 47%
Barometer: 30.41 inHg , 1029.8 hPa
Clouds: Mostly cloudy
Visibility: 10 miles , 16 km
Cloud details: Few Clouds 6500 ft
Mostly cloudy 21000 ft
Mostly cloudy 25000 ft
2020/02/21 01:56 KISP 210156Z 36008KT 10SM FEW065 BKN210 BKN250 M01/M11 A3041 RMK AO2 SLP296 T10111106
KBDR - Bridgeport, Connecticut, USA
Distance from station: ENE 54mi, 87km
Updated: 02/20/2020 8:52pm
Few Clouds
Few Clouds
 Wind from N
Wind: N 10 mph , 17 km/h
Temperature: 28°F , -2°C
Wind Chill: 19°F , -7°C
Dew Point: 9°F , -13°C
Humidity: 43%
Barometer: 30.43 inHg , 1030.5 hPa
Clouds: Few Clouds
Visibility: 10 miles , 16 km
Cloud details: Few Clouds 7000 ft
2020/02/21 01:52 KBDR 210152Z 35009KT 10SM FEW070 M02/M13 A3043 RMK AO2 SLP304 T10171128
 
KTTN - Trenton, New Jersey, USA
Distance from station: SW 55mi, 88km
Updated: 02/20/2020 8:53pm
Few Clouds
Few Clouds
 Wind from N
Wind: N 7 mph , 11 km/h
Temperature: 28°F , -2°C
Wind Chill: 21°F , -6°C
Dew Point: 12°F , -11°C
Humidity: 51%
Barometer: 30.42 inHg , 1030.1 hPa
Clouds: Few Clouds
Visibility: 10 miles , 16 km
Cloud details: Few Clouds 4800 ft
2020/02/21 01:53 KTTN 210153Z 36006KT 10SM FEW048 M02/M11 A3042 RMK AO2 SLP297 T10171111
KPOU - Poughkeepsie, New York, USA
Distance from station: N 55mi, 89km
Updated: 02/20/2020 8:53pm
Clear
Clear
 Wind from N
Wind: N 7 mph , 11 km/h
Temperature: 25°F , -4°C
Wind Chill: 17°F , -8°C
Dew Point: 9°F , -13°C
Humidity: 50%
Barometer: 30.45 inHg , 1031.2 hPa
Clouds: Clear
Visibility: 10 miles , 16 km
2020/02/21 01:53 KPOU 210153Z 01006KT 10SM CLR M04/M13 A3045 RMK AO2 SLP312 T10391128
 
KNEL - Lakehurst Nas, New Jersey, USA
Distance from station: SSW 59mi, 95km
Updated: 02/20/2020 9:00pm
Clear
Clear
 Wind from varies
Wind: varies 3 mph , 6 km/h
Temperature: 30°F , -1°C
Dew Point: 12°F , -11°C
Humidity: 47%
Barometer: 30.41 inHg , 1029.8 hPa
Clouds: Clear
Visibility: 10 miles , 16 km
2020/02/21 02:00 KNEL 210200Z VRB03KT 10SM CLR M01/M11 A3041 RMK AO2 SLP298 T10111111 $
KWRI - Wrightst/Mcguire, New Jersey, USA
Distance from station: SSW 63mi, 102km
Updated: 02/20/2020 8:56pm
Few Clouds
Few Clouds
 Wind from NNW
Wind: NNW 7 mph , 11 km/h
Temperature: 28°F , -2°C
Wind Chill: 21°F , -6°C
Dew Point: 14°F , -10°C
Humidity: 55%
Barometer: 30.41 inHg , 1029.8 hPa
Clouds: Few Clouds
Visibility: 10 miles , 16 km
Cloud details: Few Clouds 20000 ft
2020/02/21 01:56 KWRI 210156Z AUTO 34006KT 10SM FEW200 M02/M10 A3041 RMK AO2 SLP299 T10191100 $
 
KHWV - Shirley, New York, USA
Distance from station: E 64mi, 103km
Updated: 02/20/2020 8:56pm
Clear
Clear
 Wind from N
Wind: N 7 mph , 11 km/h
Temperature: 30°F , -1°C
Wind Chill: 23°F , -5°C
Dew Point: 12°F , -11°C
Humidity: 47%
Barometer: 30.41 inHg , 1029.8 hPa
Clouds: Clear
Visibility: 10 miles , 16 km
2020/02/21 01:56 KHWV 210156Z AUTO 36006KT 10SM CLR M01/M11 A3041 RMK AO2 SLP300 T10061111 TSNO
KMJX - Toms River, New Jersey, USA
Distance from station: S 64mi, 104km
Updated: 02/20/2020 8:56pm
Clear
Clear
 Wind from NW
Wind: NW 3 mph , 6 km/h
Temperature: 28°F , -2°C
Dew Point: 16°F , -9°C
Humidity: 59%
Barometer: 30.42 inHg , 1030.1 hPa
Clouds: Clear
Visibility: 10 miles , 16 km
2020/02/21 01:56 KMJX 210156Z AUTO 32003KT 10SM CLR M02/M09 A3042 RMK AO2 SLP306 T10221094 FZRANO
 
KDYL - Doylestown, Pennsylvania, USA
Distance from station: SW 65mi, 104km
Updated: 02/20/2020 8:54pm
Few Clouds
Few Clouds
 Wind from N
Wind: N 6 mph , 9 km/h
Temperature: 30°F , -1°C
Wind Chill: 24°F , -4°C
Dew Point: 12°F , -11°C
Humidity: 47%
Barometer: 30.41 inHg , 1029.8 hPa
Clouds: Few Clouds
Visibility: 10 miles , 16 km
Cloud details: Few Clouds 6000 ft
2020/02/21 01:54 KDYL 210154Z AUTO 35005KT 10SM FEW060 M01/M11 A3041 RMK AO2 SLP305 T10111111 $
KOXC - Oxford/Waterbury, Connecticut, USA
Distance from station: NE 65mi, 105km
Updated: 02/20/2020 8:51pm
Clear
Clear
 Wind from N
Wind: N 15 mph , 24 km/h
Temperature: 21°F , -6°C
Wind Chill: 7°F , -14°C
Dew Point: 10°F , -12°C
Humidity: 63%
Barometer: 30.40 inHg , 1029.5 hPa
Clouds: Clear
Visibility: 10 miles , 16 km
2020/02/21 01:51 KOXC 210151Z 35013KT 10SM CLR M06/M12 A3040 RMK AO2 SLP318 T10561117
 
KMSV - Monticello, New York, USA
Distance from station: NNW 69mi, 111km
Updated: 02/20/2020 8:56pm
Clear
Clear
 Wind from NW
Wind: NW 6 mph , 9 km/h
Temperature: 16°F , -9°C
Wind Chill: 7°F , -14°C
Dew Point: 9°F , -13°C
Humidity: 73%
Barometer: 30.39 inHg , 1029.1 hPa
Clouds: Clear
Visibility: 10 miles , 16 km
2020/02/21 01:56 KMSV 210156Z AUTO 32005KT 10SM CLR M09/M13 A3039 RMK AO2 SLP317 T10891133 FZRANO
KHVN - New Haven/Tweed, Connecticut, USA
Distance from station: ENE 70mi, 112km
Updated: 02/20/2020 8:53pm
Few Clouds
Few Clouds
 Wind from N
Wind: N 16 mph , 26 km/h, Gust: 23 mph , 37 km/h
Temperature: 28°F , -2°C
Wind Chill: 16°F , -9°C
Dew Point: 9°F , -13°C
Humidity: 43%
Barometer: 30.43 inHg , 1030.5 hPa
Clouds: Few Clouds
Visibility: 10 miles , 16 km
Cloud details: Few Clouds 7000 ft
2020/02/21 01:53 KHVN 210153Z 36014G20KT 10SM FEW070 M02/M13 A3043 RMK AO2 SLP303 T10171133 $
 
KMPO - Mt. Pocono, Pennsylvania, USA
Distance from station: WNW 70mi, 113km
Updated: 02/20/2020 8:53pm
Clear
Clear
 Wind from NW
Wind: NW 8 mph , 13 km/h
Temperature: 16°F , -9°C
Wind Chill: 5°F , -15°C
Dew Point: 7°F , -14°C
Humidity: 67%
Barometer: 30.33 inHg , 1027.1 hPa
Clouds: Clear
Visibility: 10 miles , 16 km
2020/02/21 01:53 KMPO 210153Z AUTO 32007KT 10SM CLR M09/M14 A3033 RMK AO2 SLP306 T10891139
KPNE - Philadelphia/Ne, Pennsylvania, USA
Distance from station: SW 72mi, 116km
Updated: 02/20/2020 8:54pm
Clear
Clear
 Wind from NNW
Wind: NNW 8 mph , 13 km/h
Temperature: 32°F , 0°C
Wind Chill: 25°F , -4°C
Dew Point: 12°F , -11°C
Humidity: 44%
Barometer: 30.44 inHg , 1030.8 hPa
Clouds: Clear
Visibility: 10 miles , 16 km
2020/02/21 01:54 KPNE 210154Z 34007KT 10SM CLR 00/M11 A3044 RMK AO2 SLP308 T00001106
 
KABE - Allentown, Pennsylvania, USA
Distance from station: W 73mi, 117km
Updated: 02/20/2020 8:51pm
Clear
Clear
 Wind from NNW
Wind: NNW 6 mph , 9 km/h
Temperature: 25°F , -4°C
Wind Chill: 18°F , -8°C
Dew Point: 16°F , -9°C
Humidity: 69%
Barometer: 30.43 inHg , 1030.5 hPa
Clouds: Clear
Visibility: 10 miles , 16 km
2020/02/21 01:51 KABE 210151Z 34005KT 10SM CLR M04/M09 A3043 RMK AO2 SLP312 T10391094
KUKT - Quakertown Arp, Pennsylvania, USA
Distance from station: WSW 74mi, 119km
Updated: 02/20/2020 8:55pm
Clear
Clear
 Wind from varies
Wind: varies 5 mph , 7 km/h
Temperature: 27°F , -3°C
Wind Chill: 21°F , -6°C
Dew Point: 16°F , -9°C
Humidity: 64%
Barometer: 30.42 inHg , 1030.1 hPa
Clouds: Clear
Visibility: 10 miles , 16 km
2020/02/21 01:55 KUKT 210155Z AUTO VRB04KT 10SM CLR M03/M09 A3042 RMK A01
 
KVAY - Mount Holly, New Jersey, USA
Distance from station: SSW 75mi, 120km
Updated: 02/20/2020 8:54pm
Clear
Clear
 Wind from NNW
Wind: NNW 5 mph , 7 km/h
Temperature: 30°F , -1°C
Wind Chill: 25°F , -4°C
Dew Point: 12°F , -11°C
Humidity: 47%
Barometer: 30.43 inHg , 1030.5 hPa
Clouds: Clear
Visibility: 10 miles , 16 km
2020/02/21 01:54 KVAY 210154Z AUTO 34004KT 10SM CLR M01/M11 A3043 RMK AO2 SLP305 T10061106
KXLL - Allentown Queen, Pennsylvania, USA
Distance from station: WSW 76mi, 122km
Updated: 02/20/2020 8:55pm
Clear
Clear
 Wind from NNW
Wind: NNW 5 mph , 7 km/h
Temperature: 28°F , -2°C
Wind Chill: 22°F , -6°C
Dew Point: 19°F , -7°C
Humidity: 69%
Barometer: 30.45 inHg , 1031.2 hPa
Clouds: Clear
Visibility: 10 miles , 16 km
2020/02/21 01:55 KXLL 210155Z AUTO 34004KT 10SM CLR M02/M07 A3045 RMK AO2
 
KFOK - Westhampton Beac, New York, USA
Distance from station: E 77mi, 124km
Updated: 02/20/2020 8:53pm
Clear
Clear
 Wind from N
Wind: N 13 mph , 20 km/h, Gust: 22 mph , 35 km/h
Temperature: 30°F , -1°C
Wind Chill: 20°F , -7°C
Dew Point: 12°F , -11°C
Humidity: 47%
Barometer: 30.42 inHg , 1030.1 hPa
Clouds: Clear
Visibility: 10 miles , 16 km
2020/02/21 01:53 KFOK 210153Z 36011G19KT 10SM CLR M01/M11 A3042 RMK AO2 SLP300 T10111111
KLOM - Philly Wings F, Pennsylvania, USA
Distance from station: SW 79mi, 128km
Updated: 02/20/2020 8:55pm
Clear
Clear
 Wind from NNW
Wind: NNW 3 mph , 6 km/h
Temperature: 28°F , -2°C
Dew Point: 14°F , -10°C
Humidity: 55%
Barometer: 30.43 inHg , 1030.5 hPa
Clouds: Clear
Visibility: 10 miles , 16 km
2020/02/21 01:55 KLOM 210155Z AUTO 34003KT 10SM CLR M02/M10 A3043 RMK AO2 T10171102
 
KMMK - Meriden, Connecticut, USA
Distance from station: NE 80mi, 128km
Updated: 02/20/2020 8:53pm
Clear
Clear
 Wind from NNW
Wind: NNW 9 mph , 15 km/h, Gust: 16 mph , 26 km/h
Temperature: 27°F , -3°C
Wind Chill: 18°F , -8°C
Dew Point: 7°F , -14°C
Humidity: 43%
Barometer: 30.44 inHg , 1030.8 hPa
Clouds: Clear
Visibility: 10 miles , 16 km
2020/02/21 01:53 KMMK 210153Z AUTO 33008G14KT 10SM CLR M03/M14 A3044 RMK AO2 SLP309 T10331139
KPTW - Pottstown, Pennsylvania, USA
Distance from station: WSW 88mi, 141km
Updated: 02/20/2020 8:54pm
Clear
Clear
 Wind from N
Wind: N 7 mph , 11 km/h
Temperature: 27°F , -3°C
Wind Chill: 19°F , -7°C
Dew Point: 14°F , -10°C
Humidity: 59%
Barometer: 30.44 inHg , 1030.8 hPa
Clouds: Clear
Visibility: 10 miles , 16 km
2020/02/21 01:54 KPTW 210154Z AUTO 35006KT 10SM CLR M03/M10 A3044 RMK AO2 SLP310 T10331100
 
KSNC - Chester, Connecticut, USA
Distance from station: ENE 90mi, 146km
Updated: 02/20/2020 8:35pm
Few Clouds
Few Clouds
 Wind from N
Wind: N 10 mph , 17 km/h, Gust: 17 mph , 28 km/h
Temperature: 27°F , -3°C
Wind Chill: 18°F , -8°C
Dew Point: 7°F , -14°C
Humidity: 43%
Barometer: 30.39 inHg , 1029.1 hPa
Clouds: Few Clouds
Visibility: 10 miles , 16 km
Cloud details: Few Clouds 6500 ft
2020/02/21 01:35 KSNC 210135Z AUTO 36009G15KT 10SM FEW065 M03/M14 A3039 RMK AO2
KPHL - Philadelphia, Pennsylvania, USA
Distance from station: SW 91mi, 146km
Updated: 02/20/2020 8:54pm
Mostly cloudy
Mostly cloudy
 Wind from NNW
Wind: NNW 9 mph , 15 km/h
Temperature: 34°F , 1°C
Wind Chill: 27°F , -3°C
Dew Point: 10°F , -12°C
Humidity: 38%
Barometer: 30.44 inHg , 1030.8 hPa
Clouds: Mostly cloudy
Visibility: 10 miles , 16 km
Cloud details: Mostly cloudy 19000 ft
2020/02/21 01:54 KPHL 210154Z 33008KT 10SM BKN190 01/M12 A3044 RMK AO2 SLP307 T00061122 $
 
KAVP - Avoca/Wilkes B., Pennsylvania, USA
Distance from station: WNW 91mi, 147km
Updated: 02/20/2020 8:54pm
Clear
Clear
 Wind from N
Wind: N 12 mph , 19 km/h
Temperature: 21°F , -6°C
Wind Chill: 9°F , -13°C
Dew Point: 9°F , -13°C
Humidity: 58%
Barometer: 30.43 inHg , 1030.5 hPa
Clouds: Clear
Visibility: 10 miles , 16 km
2020/02/21 01:54 KAVP 210154Z 35010KT 10SM CLR M06/M13 A3043 RMK AO2 SLP317 T10561133
KHFD - Hartford/Brainar, Connecticut, USA
Distance from station: NE 96mi, 155km
Updated: 02/20/2020 8:53pm
Clear
Clear
 Wind from NNW
Wind: NNW 10 mph , 17 km/h, Gust: 20 mph , 31 km/h
Temperature: 25°F , -4°C
Wind Chill: 15°F , -9°C
Dew Point: 5°F , -15°C
Humidity: 42%
Barometer: 30.45 inHg , 1031.2 hPa
Clouds: Clear
Visibility: 10 miles , 16 km
2020/02/21 01:53 KHFD 210153Z 34009G17KT 10SM CLR M04/M15 A3045 RMK AO2 SLP311 T10391150
 
KHTO - East Hampton, New York, USA
Distance from station: E 96mi, 155km
Updated: 02/20/2020 8:55pm
Overcast
Overcast
 Wind from N
Wind: N 10 mph , 17 km/h, Gust: 16 mph , 26 km/h
Temperature: 30°F , -1°C
Wind Chill: 21°F , -6°C
Dew Point: 12°F , -11°C
Humidity: 47%
Barometer: 30.40 inHg , 1029.5 hPa
Clouds: Overcast
Visibility: 10 miles , 16 km
Cloud details: Partly cloudy 4100 ft
Overcast 4900 ft
2020/02/21 01:55 KHTO 210155Z AUTO 35009G14KT 10SM SCT041 OVC049 M01/M11 A3040 RMK AO2 T10101111
KACY - Atlantic City, New Jersey, USA
Distance from station: SSW 99mi, 160km
Updated: 02/20/2020 8:54pm
Clear
Clear
 Wind from NNW
Wind: NNW 9 mph , 15 km/h
Temperature: 34°F , 1°C
Wind Chill: 27°F , -3°C
Dew Point: 12°F , -11°C
Humidity: 41%
Barometer: 30.41 inHg , 1029.8 hPa
Clouds: Clear
Visibility: 10 miles , 16 km
2020/02/21 01:54 KACY 210154Z 34008KT 10SM CLR 01/M11 A3041 RMK AO2 SLP298 T00061106